Time;durP1;ratioP1;P1;durP2;ratioP2;P2;SDS_P1;SDS_P2;PMS_P1;PMS_P2;Temp;Humidity;BMP_temperature;BMP_pressure;BME280_temperature;BME280_humidity;BME280_pressure;Samples;Min_cycle;Max_cycle;Signal;HPM_P1;HPM_P2
2022/11/15 00:01:46;;;;;;;34.00;19.00;;;;;;;5.03;84.84;98834.22;5089528;28;20116;-71
2022/11/15 00:04:11;;;;;;;42.80;20.75;;;;;;;5.01;84.50;98828.19;5090735;28;20055;-71
2022/11/15 00:06:37;;;;;;;41.08;21.02;;;;;;;5.02;84.99;98823.56;5089347;28;20138;-72
2022/11/15 00:09:03;;;;;;;36.00;19.70;;;;;;;5.01;84.88;98817.31;5071165;28;20043;-71
2022/11/15 00:11:28;;;;;;;45.63;23.08;;;;;;;4.99;84.66;98824.06;5090249;28;20153;-71
2022/11/15 00:13:58;;;;;;;47.30;22.88;;;;;;;4.93;84.39;98809.59;5089143;28;20024;-71
2022/11/15 00:16:24;;;;;;;44.60;23.63;;;;;;;4.92;84.56;98807.94;5089655;28;20027;-71
2022/11/15 00:18:50;;;;;;;46.05;23.85;;;;;;;4.93;84.76;98809.59;5088883;28;20036;-72
2022/11/15 00:21:16;;;;;;;44.65;22.80;;;;;;;4.94;84.23;98804.97;5091846;28;20030;-71
2022/11/15 00:23:42;;;;;;;40.00;21.63;;;;;;;4.95;84.31;98803.88;5089504;28;20039;-71
2022/11/15 00:26:12;;;;;;;42.42;22.38;;;;;;;4.94;84.57;98800.38;5088932;28;20020;-71
2022/11/15 00:28:37;;;;;;;42.90;22.35;;;;;;;4.91;84.04;98790.00;5089528;28;20032;-71
2022/11/15 00:31:04;;;;;;;38.90;20.80;;;;;;;4.91;84.54;98790.00;5089320;28;20031;-71
2022/11/15 00:33:30;;;;;;;37.30;20.77;;;;;;;4.91;84.14;98785.38;5089513;28;20020;-71
2022/11/15 00:36:08;;;;;;;35.20;19.88;;;;;;;4.90;84.36;98780.19;5088827;28;20023;-71
2022/11/15 00:38:35;;;;;;;39.67;20.90;;;;;;;4.86;83.67;98774.44;5088789;28;20102;-71
2022/11/15 00:41:02;;;;;;;37.78;20.65;;;;;;;4.86;84.27;98779.06;5089297;28;20042;-71
2022/11/15 00:43:27;;;;;;;36.08;20.05;;;;;;;4.83;84.48;98772.22;5089207;28;20059;-71
2022/11/15 00:45:53;;;;;;;32.05;17.90;;;;;;;4.82;84.15;98769.75;5088466;28;20032;-71
2022/11/15 00:48:18;;;;;;;32.60;18.55;;;;;;;4.79;83.83;98775.69;5088354;28;20058;-71
2022/11/15 00:50:44;;;;;;;30.27;17.95;;;;;;;4.76;83.68;98758.00;5088867;28;20024;-71
2022/11/15 00:53:09;;;;;;;31.70;16.92;;;;;;;4.70;83.96;98765.25;5089110;28;20102;-71
2022/11/15 00:55:35;;;;;;;30.15;17.58;;;;;;;4.68;83.31;98764.69;5088506;28;20055;-71
2022/11/15 00:58:01;;;;;;;28.65;16.58;;;;;;;4.62;83.66;98760.25;5088738;28;20046;-72
2022/11/15 01:00:26;;;;;;;29.33;16.52;;;;;;;4.59;83.26;98758.84;5088972;28;20032;-72
2022/11/15 01:02:51;;;;;;;27.75;16.15;;;;;;;4.61;83.21;98758.59;5088758;28;20032;-71
2022/11/15 01:05:17;;;;;;;28.98;16.60;;;;;;;4.56;83.51;98753.91;5088362;28;20686;-72
2022/11/15 01:07:42;;;;;;;31.63;17.48;;;;;;;4.56;83.59;98744.94;5086502;28;20027;-71
2022/11/15 01:10:08;;;;;;;30.90;18.02;;;;;;;4.55;83.81;98754.97;5088340;28;20546;-71
2022/11/15 01:12:33;;;;;;;30.63;16.98;;;;;;;4.53;83.35;98754.41;5088195;28;20023;-71
2022/11/15 01:14:59;;;;;;;31.05;17.98;;;;;;;4.47;82.93;98752.72;5088307;28;20117;-71
2022/11/15 01:17:24;;;;;;;30.27;17.15;;;;;;;4.43;82.79;98751.56;5088111;28;20035;-71
2022/11/15 01:19:49;;;;;;;29.67;16.48;;;;;;;4.39;82.91;98745.78;5086967;28;20032;-71
2022/11/15 01:22:15;;;;;;;33.80;18.60;;;;;;;4.34;82.35;98742.97;5088239;28;20043;-72
2022/11/15 01:24:40;;;;;;;35.85;19.17;;;;;;;4.28;83.15;98739.38;5087932;28;20036;-71
2022/11/15 01:27:06;;;;;;;35.38;18.40;;;;;;;4.24;82.75;98743.66;5088083;28;20012;-71
2022/11/15 01:29:31;;;;;;;31.23;17.05;;;;;;;4.20;82.10;98736.25;5091016;28;20016;-71
2022/11/15 01:31:57;;;;;;;28.42;16.85;;;;;;;4.17;82.34;98737.56;5088054;28;20172;-72
2022/11/15 01:34:22;;;;;;;27.35;15.98;;;;;;;4.12;82.14;98732.88;5088138;28;20028;-71
2022/11/15 01:36:48;;;;;;;30.00;15.77;;;;;;;4.13;82.82;98729.09;5088651;28;20017;-71
2022/11/15 01:39:13;;;;;;;28.67;15.27;;;;;;;4.10;82.40;98726.88;5089773;28;20067;-71
2022/11/15 01:41:38;;;;;;;32.47;16.75;;;;;;;4.12;82.46;98723.91;5070295;28;20069;-71
2022/11/15 01:44:41;;;;;;;29.65;16.67;;;;;;;4.10;83.02;98721.44;5087415;28;20051;-71
2022/11/15 01:47:14;;;;;;;31.05;15.30;;;;;;;4.09;82.07;98724.41;5086746;28;20012;-70
2022/11/15 01:50:00;;;;;;;29.30;15.73;;;;;;;4.08;82.45;98715.44;5087296;28;20058;-70
2022/11/15 01:52:28;;;;;;;30.13;15.85;;;;;;;4.10;82.42;98712.47;5087972;28;20488;-70
2022/11/15 01:55:13;;;;;;;28.13;15.63;;;;;;;4.05;82.82;98707.81;5088509;28;20021;-70
2022/11/15 01:57:42;;;;;;;29.25;16.20;;;;;;;4.01;81.73;98714.78;5088840;28;20422;-70
2022/11/15 02:00:08;;;;;;;29.38;15.15;;;;;;;3.96;81.99;98703.84;5089231;28;20584;-70
2022/11/15 02:02:36;;;;;;;25.05;13.63;;;;;;;3.92;82.04;98705.41;5088100;28;20165;-70
2022/11/15 02:05:02;;;;;;;22.25;12.57;;;;;;;3.88;82.24;98699.66;5086922;28;20020;-69
2022/11/15 02:07:29;;;;;;;23.30;13.27;;;;;;;3.85;82.35;98694.72;5087669;28;20028;-69
2022/11/15 02:09:55;;;;;;;21.35;12.80;;;;;;;3.79;81.79;98699.25;5086005;28;20020;-70
2022/11/15 02:12:22;;;;;;;20.85;12.57;;;;;;;3.78;82.23;98699.47;5088133;28;20027;-71
2022/11/15 02:14:52;;;;;;;19.85;11.32;;;;;;;3.78;82.15;98691.34;5087370;28;20027;-70
2022/11/15 02:17:18;;;;;;;;;;;;;;;3.79;82.14;98693.81;5070158;28;20024;-70
2022/11/15 02:20:20;;;;;;;22.80;13.38;;;;;;;3.80;81.67;98686.50;5087420;28;20374;-70
2022/11/15 02:23:04;;;;;;;25.23;13.70;;;;;;;3.81;82.10;98682.72;5086564;28;20024;-70
2022/11/15 02:25:35;;;;;;;24.58;14.40;;;;;;;3.82;81.71;98684.34;5087215;28;20674;-70
2022/11/15 02:28:25;;;;;;;23.15;12.93;;;;;;;3.82;82.09;98682.47;5087801;28;20024;-69
2022/11/15 02:30:59;;;;;;;21.77;12.88;;;;;;;3.83;81.54;98686.00;5090067;28;20489;-70
2022/11/15 02:33:40;;;;;;;21.80;12.30;;;;;;;3.80;81.50;98681.06;5091707;28;20115;-70
2022/11/15 02:36:34;;;;;;;22.65;12.45;;;;;;;3.73;81.59;98676.63;5088303;28;20016;-70
2022/11/15 02:39:14;;;;;;;23.27;12.88;;;;;;;3.70;82.07;98679.81;5081395;28;20034;-70
2022/11/15 02:41:52;;;;;;;20.15;11.30;;;;;;;3.71;81.87;98680.66;5090735;28;20473;-70
2022/11/15 02:44:26;;;;;;;18.67;11.00;;;;;;;3.74;82.01;98680.19;5072652;28;20067;-71
2022/11/15 02:47:14;;;;;;;20.45;11.88;;;;;;;3.71;81.70;98675.25;5091157;28;20060;-70
2022/11/15 02:49:45;;;;;;;18.73;11.32;;;;;;;3.70;81.29;98668.97;5088274;28;20034;-70
2022/11/15 02:52:15;;;;;;;15.45;10.10;;;;;;;3.67;81.72;98664.03;5088570;28;20024;-70
2022/11/15 02:54:41;;;;;;;18.10;11.18;;;;;;;3.66;81.49;98662.44;5089316;28;20830;-69
2022/11/15 02:57:20;;;;;;;16.30;10.45;;;;;;;3.63;81.93;98654.78;5091213;28;20048;-69
2022/11/15 02:59:57;;;;;;;19.90;12.02;;;;;;;3.60;81.53;98659.84;5090564;28;20024;-70
2022/11/15 03:02:51;;;;;;;21.27;12.10;;;;;;;3.57;81.50;98645.72;5075865;28;20036;-70
2022/11/15 03:06:04;;;;;;;17.20;10.65;;;;;;;3.58;81.50;98649.25;5051565;28;20032;-70
2022/11/15 03:08:49;;;;;;;19.63;11.02;;;;;;;3.58;81.50;98641.94;5072196;28;20038;-69
2022/11/15 03:11:18;;;;;;;18.70;11.35;;;;;;;3.57;81.12;98640.28;5088246;28;20031;-70
2022/11/15 03:14:02;;;;;;;21.13;11.77;;;;;;;3.55;81.03;98642.41;5089826;28;20050;-70
2022/11/15 03:16:38;;;;;;;19.52;11.65;;;;;;;3.55;81.74;98641.63;5091991;28;20421;-70
2022/11/15 03:19:17;;;;;;;20.23;11.93;;;;;;;3.52;81.73;98640.19;5089354;28;20530;-68
2022/11/15 03:21:44;;;;;;;20.85;12.85;;;;;;;3.54;81.86;98642.69;5089819;28;20050;-69
2022/11/15 03:24:13;;;;;;;20.23;12.00;;;;;;;3.52;81.59;98642.09;5090079;28;20028;-69
2022/11/15 03:26:41;;;;;;;22.98;13.40;;;;;;;3.51;81.09;98633.13;5090838;28;20052;-69
2022/11/15 03:29:12;;;;;;;20.83;12.02;;;;;;;3.51;81.61;98638.56;5090226;28;20032;-70
2022/11/15 03:31:48;;;;;;;23.20;13.50;;;;;;;3.54;81.58;98626.41;5090969;28;20032;-69
2022/11/15 03:34:37;;;;;;;26.35;13.75;;;;;;;3.51;81.51;98625.00;5089662;28;20062;-67
2022/11/15 03:37:04;;;;;;;23.50;13.45;;;;;;;3.49;80.80;98624.41;5090628;28;20054;-68
2022/11/15 03:39:30;;;;;;;21.23;12.63;;;;;;;3.47;80.98;98618.41;5090569;28;20032;-67
2022/11/15 03:42:23;;;;;;;24.35;13.95;;;;;;;3.42;80.81;98612.94;5089622;28;20028;-68
2022/11/15 03:45:11;;;;;;;29.92;16.35;;;;;;;3.41;80.95;98614.00;5087268;28;20154;-67
2022/11/15 03:47:42;;;;;;;25.38;15.18;;;;;;;3.38;80.94;98611.78;5089369;28;20020;-67
2022/11/15 03:50:28;;;;;;;26.00;14.75;;;;;;;3.35;81.19;98613.06;5091082;28;20031;-67
2022/11/15 03:52:55;;;;;;;20.30;13.20;;;;;;;3.38;81.25;98612.59;5089248;28;20031;-67
2022/11/15 03:55:21;;;;;;;23.98;14.30;;;;;;;3.41;81.43;98606.69;5090824;28;20024;-67
2022/11/15 03:57:50;;;;;;;25.75;14.68;;;;;;;3.41;81.67;98601.25;5091028;28;20472;-67
2022/11/15 04:00:15;;;;;;;27.30;15.37;;;;;;;3.36;81.16;98594.94;5090651;28;20028;-67
2022/11/15 04:02:41;;;;;;;24.73;14.38;;;;;;;3.35;81.01;98591.38;5090622;28;20173;-68
2022/11/15 04:05:07;;;;;;;27.92;15.02;;;;;;;3.30;80.46;98594.00;5090610;28;20023;-68
2022/11/15 04:07:32;;;;;;;29.77;15.93;;;;;;;3.26;80.55;98598.31;5091126;28;20027;-67
2022/11/15 04:10:05;;;;;;;26.95;14.75;;;;;;;3.25;80.85;98599.38;5090709;28;20726;-67
2022/11/15 04:12:35;;;;;;;28.17;15.20;;;;;;;3.24;80.88;98590.41;5090862;28;20059;-67
2022/11/15 04:15:21;;;;;;;24.73;14.68;;;;;;;3.24;80.60;98598.53;5090109;28;20019;-67
2022/11/15 04:17:52;;;;;;;21.75;13.30;;;;;;;3.24;81.42;98595.81;5090237;28;20506;-67
2022/11/15 04:25:58;;;;;;;20.17;12.35;;;;;;;3.23;80.47;98577.91;5089488;28;20528;-67
2022/11/15 04:28:24;;;;;;;23.33;14.07;;;;;;;3.20;81.13;98583.81;5090732;28;20482;-68
2022/11/15 04:30:49;;;;;;;20.60;13.63;;;;;;;3.19;81.06;98590.31;5090695;28;20028;-67
2022/11/15 04:33:15;;;;;;;24.20;17.17;;;;;;;3.22;80.63;98591.72;5090611;28;20028;-67
2022/11/15 04:35:42;;;;;;;27.08;16.63;;;;;;;3.20;81.00;98586.53;5089831;28;20456;-67
2022/11/15 04:38:09;;;;;;;28.10;15.65;;;;;;;3.20;80.42;98583.81;5090994;28;20028;-67
2022/11/15 04:40:36;;;;;;;23.70;14.85;;;;;;;3.21;81.27;98574.63;5091832;28;20103;-67
2022/11/15 04:43:01;;;;;;;20.08;13.27;;;;;;;3.21;81.00;98580.03;5089836;28;22149;-68
2022/11/15 04:45:27;;;;;;;21.38;12.35;;;;;;;3.21;80.56;98571.91;5090971;28;20016;-68
2022/11/15 04:47:52;;;;;;;24.40;14.60;;;;;;;3.18;80.34;98575.13;5092681;28;20024;-68
2022/11/15 04:50:17;;;;;;;24.60;14.93;;;;;;;3.15;80.24;98564.75;5073088;28;20476;-68
2022/11/15 04:52:49;;;;;;;23.27;14.20;;;;;;;3.15;80.80;98570.19;5089285;28;20387;-68
2022/11/15 04:55:15;;;;;;;22.30;14.38;;;;;;;3.15;80.48;98574.78;5087754;28;20035;-68
2022/11/15 04:57:40;;;;;;;24.63;13.32;;;;;;;3.13;81.07;98569.59;5090162;28;20036;-68
2022/11/15 05:00:08;;;;;;;21.58;12.20;;;;;;;3.12;80.44;98560.66;5087051;28;20020;-68
2022/11/15 05:05:18;;;;;;;22.30;13.32;;;;;;;3.13;80.56;98556.03;5088963;28;20097;-67
2022/11/15 05:07:44;;;;;;;23.90;14.45;;;;;;;3.11;80.79;98545.47;5090194;28;20054;-67
2022/11/15 05:10:09;;;;;;;23.67;15.52;;;;;;;3.08;80.32;98543.25;5089008;28;20052;-67
2022/11/15 05:12:35;;;;;;;23.95;15.18;;;;;;;3.08;80.08;98542.41;5089637;28;20024;-67
2022/11/15 05:15:00;;;;;;;23.48;14.27;;;;;;;3.04;80.04;98544.00;5071666;28;20027;-67
2022/11/15 05:17:25;;;;;;;21.90;13.38;;;;;;;3.04;80.31;98541.28;5088368;28;20032;-68
2022/11/15 05:19:51;;;;;;;21.67;13.07;;;;;;;3.01;80.26;98539.88;5087834;28;20107;-68
2022/11/15 05:22:18;;;;;;;21.98;12.80;;;;;;;3.01;79.68;98536.34;5091150;28;20480;-68
2022/11/15 05:24:43;;;;;;;20.17;12.25;;;;;;;2.99;79.78;98536.56;5090470;28;20047;-68
2022/11/15 05:27:08;;;;;;;20.75;12.93;;;;;;;2.97;79.57;98526.00;5089062;28;20032;-68
2022/11/15 05:29:34;;;;;;;25.05;15.25;;;;;;;2.96;79.67;98518.94;5085692;28;20024;-68
2022/11/15 05:31:59;;;;;;;25.65;15.93;;;;;;;2.92;80.00;98531.31;5089753;28;20032;-67
2022/11/15 05:34:26;;;;;;;28.75;16.95;;;;;;;2.91;80.09;98526.13;5086575;28;20153;-68
2022/11/15 05:36:52;;;;;;;37.50;20.85;;;;;;;2.90;79.85;98519.91;5086610;28;20032;-68
2022/11/15 05:39:17;;;;;;;34.72;19.63;;;;;;;2.86;79.83;98517.91;5087205;28;20054;-67
2022/11/15 05:41:53;;;;;;;29.88;17.92;;;;;;;2.81;79.71;98516.78;5070265;28;20431;-67
2022/11/15 05:44:21;;;;;;;25.58;15.25;;;;;;;2.83;80.27;98514.66;5088497;28;20044;-68
2022/11/15 05:46:49;;;;;;;26.05;15.13;;;;;;;2.82;79.87;98521.13;5089604;28;20241;-68
2022/11/15 05:49:19;;;;;;;24.30;14.35;;;;;;;2.81;79.83;98511.38;5067643;28;20106;-68
2022/11/15 05:51:48;;;;;;;27.27;15.68;;;;;;;2.81;79.44;98515.94;5089948;28;20575;-67
2022/11/15 05:54:14;;;;;;;32.97;17.20;;;;;;;2.78;79.80;98511.84;5088154;28;20480;-68
2022/11/15 05:56:39;;;;;;;28.88;16.52;;;;;;;2.75;79.27;98506.94;5065530;28;20020;-68
2022/11/15 05:59:07;;;;;;;24.15;14.13;;;;;;;2.74;79.56;98510.69;5084889;28;20017;-67
2022/11/15 06:01:32;;;;;;;23.00;13.00;;;;;;;2.74;80.33;98507.16;5089373;28;20028;-67
2022/11/15 06:03:57;;;;;;;21.98;12.25;;;;;;;2.76;79.60;98510.44;5087829;28;20031;-67
2022/11/15 06:06:23;;;;;;;20.17;12.98;;;;;;;2.77;80.20;98517.50;5092650;28;20025;-67
2022/11/15 06:08:48;;;;;;;21.52;12.65;;;;;;;2.78;80.27;98501.03;5091652;28;20526;-68
2022/11/15 06:11:14;;;;;;;20.83;12.85;;;;;;;2.83;79.60;98508.41;5098843;28;20073;-68
2022/11/15 06:13:39;;;;;;;24.88;13.88;;;;;;;2.84;80.27;98504.63;5103529;28;20469;-67
2022/11/15 06:16:05;;;;;;;22.02;14.02;;;;;;;2.88;79.69;98499.53;5093513;28;20028;-67
2022/11/15 06:18:35;;;;;;;22.92;14.07;;;;;;;2.92;80.05;98501.53;5074207;28;20032;-67
2022/11/15 06:21:01;;;;;;;26.05;15.57;;;;;;;2.93;79.75;98495.03;5091882;28;20042;-68
2022/11/15 06:23:27;;;;;;;25.02;15.23;;;;;;;2.95;80.53;98495.63;5090573;28;20531;-67
2022/11/15 06:25:52;;;;;;;25.13;15.15;;;;;;;2.99;80.29;98493.22;5091355;28;20116;-67
2022/11/15 06:28:18;;;;;;;26.15;15.60;;;;;;;3.03;80.59;98499.81;5090998;28;20119;-67
2022/11/15 06:30:43;;;;;;;22.50;14.77;;;;;;;3.08;79.88;98497.19;5089120;28;20039;-66
2022/11/15 06:33:08;;;;;;;25.35;15.05;;;;;;;3.11;80.36;98502.09;5107449;28;20053;-66
2022/11/15 06:35:35;;;;;;;25.98;15.88;;;;;;;3.17;80.67;98500.28;5105992;28;20452;-67
2022/11/15 06:38:09;;;;;;;26.58;15.73;;;;;;;3.21;80.45;98506.06;5109679;28;20031;-66
2022/11/15 06:40:39;;;;;;;33.75;17.67;;;;;;;3.27;80.04;98510.47;5113358;28;20032;-66
2022/11/15 06:43:05;;;;;;;37.40;19.00;;;;;;;3.30;80.21;98515.38;5102948;28;20360;-67
2022/11/15 06:45:31;;;;;;;36.83;19.80;;;;;;;3.30;80.08;98517.28;5092364;28;20111;-66
2022/11/15 06:47:57;;;;;;;40.38;20.77;;;;;;;3.34;79.79;98507.59;5092127;28;20108;-66
2022/11/15 06:50:23;;;;;;;51.88;24.77;;;;;;;3.38;80.64;98506.03;5090728;28;20045;-66
2022/11/15 06:52:48;;;;;;;64.95;29.13;;;;;;;3.45;80.78;98508.56;5091551;28;20021;-66
2022/11/15 06:55:13;;;;;;;54.60;25.73;;;;;;;3.50;79.91;98511.38;5074303;28;20060;-66
2022/11/15 06:57:50;;;;;;;45.35;22.63;;;;;;;3.52;80.04;98504.59;5090400;28;20365;-67
2022/11/15 07:00:17;;;;;;;34.70;18.75;;;;;;;3.58;80.48;98508.22;5090167;28;20020;-66
2022/11/15 07:02:43;;;;;;;36.10;19.40;;;;;;;3.62;80.36;98505.84;5091004;28;20024;-66
2022/11/15 07:05:08;;;;;;;34.20;18.38;;;;;;;3.67;80.00;98514.06;5091362;28;20468;-66
2022/11/15 07:07:33;;;;;;;37.17;20.90;;;;;;;3.72;80.50;98506.78;5090714;28;20547;-67
2022/11/15 07:09:59;;;;;;;36.75;20.70;;;;;;;3.79;80.81;98498.50;5090021;28;20035;-67
2022/11/15 07:12:24;;;;;;;34.83;19.65;;;;;;;3.88;80.54;98509.72;5090979;28;20396;-65
2022/11/15 07:14:49;;;;;;;36.58;21.05;;;;;;;3.96;80.77;98503.88;5090333;28;20032;-66
2022/11/15 07:17:15;;;;;;;33.03;19.40;;;;;;;4.05;80.54;98514.28;5090586;28;20483;-68
2022/11/15 07:19:40;;;;;;;36.25;22.20;;;;;;;4.14;80.40;98515.47;5090335;28;20111;-67
2022/11/15 07:22:06;;;;;;;38.83;22.67;;;;;;;4.24;80.60;98512.88;5090459;28;20112;-66
2022/11/15 07:24:31;;;;;;;39.33;23.13;;;;;;;4.33;80.50;98518.69;5071982;28;20055;-66
2022/11/15 07:26:56;;;;;;;49.15;27.83;;;;;;;4.41;80.72;98517.44;5090952;28;20020;-66
2022/11/15 07:29:22;;;;;;;61.33;31.98;;;;;;;4.50;80.98;98517.78;5090917;28;20042;-66
2022/11/15 07:31:48;;;;;;;62.65;32.00;;;;;;;4.57;80.74;98524.66;5089992;28;20028;-66
2022/11/15 07:34:13;;;;;;;56.33;29.88;;;;;;;4.64;80.61;98520.91;5090681;28;20077;-66
2022/11/15 07:36:38;;;;;;;48.67;27.35;;;;;;;4.71;80.65;98524.25;5090068;28;20036;-67
2022/11/15 07:39:04;;;;;;;50.65;30.35;;;;;;;4.78;81.03;98514.00;5089926;28;20020;-67
2022/11/15 07:41:29;;;;;;;58.28;32.88;;;;;;;4.84;80.61;98514.88;5090669;28;20464;-66
2022/11/15 07:43:55;;;;;;;52.55;32.45;;;;;;;4.92;80.54;98519.84;5090504;28;20047;-67
2022/11/15 07:46:20;;;;;;;49.78;29.52;;;;;;;4.98;80.59;98510.66;5090397;28;20088;-67
2022/11/15 07:48:45;;;;;;;43.95;26.65;;;;;;;5.06;80.85;98507.47;5089690;28;20107;-67
2022/11/15 07:51:16;;;;;;;41.15;24.58;;;;;;;5.13;80.87;98503.69;5088212;28;20020;-68
2022/11/15 07:53:44;;;;;;;;;;;;;;;5.20;81.21;98513.31;5090137;28;20040;-67
2022/11/15 07:56:10;;;;;;;42.55;25.02;;;;;;;5.28;80.61;98514.72;5090065;28;19954;-67
2022/11/15 07:58:36;;;;;;;46.95;26.67;;;;;;;5.35;81.17;98500.88;5089770;28;20059;-68
2022/11/15 08:01:06;;;;;;;51.40;28.00;;;;;;;5.44;80.60;98503.97;5089268;28;20055;-67
2022/11/15 08:03:31;;;;;;;;;;;;;;;5.50;81.27;98500.19;5090442;28;20028;-67
2022/11/15 08:05:57;;;;;;;54.63;29.92;;;;;;;5.57;80.81;98495.31;5089663;28;20375;-68
2022/11/15 08:08:22;;;;;;;52.30;27.65;;;;;;;5.61;80.91;98498.34;5071646;28;20020;-67
2022/11/15 08:10:47;;;;;;;50.67;26.38;;;;;;;5.67;81.19;98494.59;5072950;28;20028;-67
2022/11/15 08:13:13;;;;;;;51.65;27.95;;;;;;;5.73;80.82;98496.22;5089302;28;20043;-67
2022/11/15 08:15:39;;;;;;;50.88;31.83;;;;;;;5.79;81.22;98486.22;5088775;28;20032;-68
2022/11/15 08:18:09;;;;;;;43.70;25.77;;;;;;;5.87;81.37;98488.44;5089300;28;20020;-67
2022/11/15 08:20:34;;;;;;;37.92;23.90;;;;;;;5.98;81.41;98489.31;5090917;28;20024;-68
2022/11/15 08:23:01;;;;;;;39.28;22.92;;;;;;;6.07;81.79;98492.34;5090111;28;20383;-68
2022/11/15 08:25:28;;;;;;;38.17;22.15;;;;;;;6.15;81.52;98494.56;5086670;28;20422;-67
2022/11/15 08:27:56;;;;;;;36.53;21.88;;;;;;;6.25;81.59;98494.63;5089181;28;20594;-67
2022/11/15 08:30:21;;;;;;;37.90;21.60;;;;;;;6.34;81.36;98494.91;5090530;28;20020;-67
2022/11/15 08:32:51;;;;;;;37.70;22.83;;;;;;;6.43;81.21;98489.75;5089428;28;20024;-67
2022/11/15 08:35:18;;;;;;;36.83;22.73;;;;;;;6.53;81.64;98486.22;5089252;28;20031;-67
2022/11/15 08:37:43;;;;;;;38.22;24.13;;;;;;;6.63;81.70;98485.47;5089282;28;20024;-68
2022/11/15 08:40:09;;;;;;;36.78;22.65;;;;;;;6.74;81.46;98483.56;5085473;28;20035;-67
2022/11/15 08:42:35;;;;;;;39.13;24.35;;;;;;;6.82;81.39;98475.66;5089375;28;20024;-69
2022/11/15 08:45:00;;;;;;;37.10;22.50;;;;;;;6.92;81.19;98469.41;5087060;28;20244;-70
2022/11/15 08:47:26;;;;;;;36.97;20.60;;;;;;;7.02;81.82;98465.88;5089826;28;20525;-70
2022/11/15 08:49:51;;;;;;;36.50;21.88;;;;;;;7.10;81.67;98465.31;5090146;28;20028;-72
2022/11/15 08:52:17;;;;;;;37.40;22.40;;;;;;;7.20;81.18;98463.66;5069849;28;20035;-70
2022/11/15 08:54:42;;;;;;;39.15;23.77;;;;;;;7.29;81.66;98462.03;5088964;28;20697;-70
2022/11/15 08:57:09;;;;;;;39.30;22.88;;;;;;;7.37;81.40;98456.03;5068791;28;20460;-69
2022/11/15 08:59:35;;;;;;;38.70;22.42;;;;;;;7.47;81.71;98455.19;5088724;28;20407;-68
2022/11/15 09:02:00;;;;;;;40.25;23.13;;;;;;;7.56;81.58;98450.78;5085684;28;20028;-67
2022/11/15 09:04:25;;;;;;;39.03;23.33;;;;;;;7.64;81.14;98446.66;5087022;28;20028;-66
2022/11/15 09:06:51;;;;;;;39.72;23.15;;;;;;;7.73;81.57;98445.00;5086929;28;20032;-67
2022/11/15 09:09:16;;;;;;;42.08;25.70;;;;;;;7.81;81.60;98440.88;5088072;28;20081;-66
2022/11/15 09:11:42;;;;;;;39.60;22.88;;;;;;;7.93;81.68;98447.94;5088813;28;20167;-67
2022/11/15 09:14:07;;;;;;;40.60;22.70;;;;;;;8.02;81.70;98446.28;5088374;28;20036;-67
2022/11/15 09:16:32;;;;;;;41.03;22.35;;;;;;;8.12;80.98;98443.50;5088062;28;20024;-67
2022/11/15 09:18:58;;;;;;;40.47;24.00;;;;;;;8.21;81.22;98443.72;5088539;28;20452;-67
2022/11/15 09:21:23;;;;;;;38.25;22.65;;;;;;;8.30;81.15;98442.06;5089257;28;20046;-67
2022/11/15 09:23:52;;;;;;;40.33;23.38;;;;;;;8.43;80.76;98437.03;5088685;28;20034;-68
2022/11/15 09:26:17;;;;;;;40.20;24.05;;;;;;;8.56;81.39;98441.13;5108556;28;20510;-68
2022/11/15 09:28:43;;;;;;;38.15;22.92;;;;;;;8.70;81.18;98433.09;5098311;28;20012;-68
2022/11/15 09:31:09;;;;;;;38.92;23.10;;;;;;;8.84;80.87;98430.53;5089369;28;20024;-68
2022/11/15 09:33:35;;;;;;;48.42;25.67;;;;;;;8.97;80.91;98426.31;5089513;28;20032;-69
2022/11/15 09:36:03;;;;;;;49.28;29.45;;;;;;;9.11;80.61;98424.56;5089326;28;20107;-68
2022/11/15 09:38:28;;;;;;;43.00;26.25;;;;;;;9.26;80.62;98420.84;5085522;28;20065;-67
2022/11/15 09:41:12;;;;;;;40.67;23.90;;;;;;;9.42;80.96;98417.94;5090382;28;20414;-69
2022/11/15 09:43:41;;;;;;;38.58;25.25;;;;;;;9.57;81.07;98415.06;5086895;28;20044;-69
2022/11/15 09:46:32;;;;;;;42.25;25.25;;;;;;;9.71;80.49;98412.44;5088531;28;20036;-70
2022/11/15 09:49:00;;;;;;;42.90;23.98;;;;;;;9.89;80.20;98418.28;5086417;28;20058;-68
2022/11/15 09:51:33;;;;;;;38.78;21.88;;;;;;;10.02;80.04;98414.78;5085999;28;20028;-68
2022/11/15 09:54:07;;;;;;;44.63;23.40;;;;;;;10.18;80.13;98414.59;5086951;28;20107;-67
2022/11/15 09:56:36;;;;;;;41.45;22.42;;;;;;;10.31;79.80;98411.16;5087423;28;20031;-67
2022/11/15 09:59:23;;;;;;;31.30;18.65;;;;;;;10.43;77.92;98391.53;5070062;28;20441;-68
2022/11/15 10:02:07;;;;;;;32.70;19.25;;;;;;;10.55;77.86;98394.66;5087665;28;20024;-68
2022/11/15 10:04:33;;;;;;;30.42;18.80;;;;;;;10.65;76.98;98396.41;5089662;28;20080;-68
2022/11/15 10:07:27;;;;;;;28.23;16.85;;;;;;;10.75;77.59;98375.44;5071213;28;20036;-67
2022/11/15 10:09:59;;;;;;;33.90;18.42;;;;;;;10.91;77.36;98373.25;5084146;28;20032;-68
2022/11/15 10:12:25;;;;;;;30.92;16.80;;;;;;;10.99;77.27;98373.34;5089787;28;20038;-67
2022/11/15 10:15:05;;;;;;;28.50;15.93;;;;;;;11.07;76.15;98366.34;5082051;28;20040;-67
2022/11/15 10:17:45;;;;;;;27.55;16.63;;;;;;;11.18;76.23;98367.00;5080908;28;20356;-67
2022/11/15 10:20:19;;;;;;;26.15;16.33;;;;;;;11.27;76.66;98362.41;5098630;28;20103;-69
2022/11/15 10:22:55;;;;;;;28.30;16.50;;;;;;;11.36;75.94;98365.28;5069376;28;20394;-69
2022/11/15 10:25:30;;;;;;;29.23;16.73;;;;;;;11.43;76.24;98362.13;5082312;28;20434;-69
2022/11/15 10:28:29;;;;;;;28.58;16.30;;;;;;;11.51;75.41;98363.34;5085873;28;20024;-68
2022/11/15 10:30:57;;;;;;;28.10;15.70;;;;;;;11.55;75.77;98358.88;5087419;28;20020;-68
2022/11/15 10:33:25;;;;;;;26.25;16.27;;;;;;;11.57;75.28;98353.91;5084803;28;20020;-70
2022/11/15 10:36:08;;;;;;;28.27;16.73;;;;;;;11.61;75.52;98355.72;5087055;28;20101;-70
2022/11/15 10:38:49;;;;;;;38.38;21.60;;;;;;;11.66;75.90;98364.97;5091229;28;20039;-69
2022/11/15 10:41:27;;;;;;;30.80;16.88;;;;;;;11.67;74.38;98355.63;5078123;28;20034;-69
2022/11/15 10:44:01;;;;;;;25.35;15.65;;;;;;;11.66;74.54;98356.72;5085468;28;20055;-68
2022/11/15 10:46:26;;;;;;;27.00;15.43;;;;;;;11.68;73.56;98351.75;5087278;28;20129;-68
2022/11/15 10:48:51;;;;;;;23.67;15.13;;;;;;;11.69;74.31;98350.63;5087861;28;20028;-69
2022/11/15 10:51:28;;;;;;;22.90;14.65;;;;;;;11.70;72.42;98346.75;5089712;28;20024;-69
2022/11/15 10:53:56;;;;;;;26.40;16.42;;;;;;;11.69;73.09;98345.97;5092273;28;20028;-68
2022/11/15 10:56:24;;;;;;;22.90;14.50;;;;;;;11.68;71.79;98344.34;5073875;28;20502;-68
2022/11/15 10:58:53;;;;;;;24.10;15.13;;;;;;;11.69;73.40;98345.97;5092827;28;20032;-68
2022/11/15 11:01:31;;;;;;;32.30;20.40;;;;;;;11.70;72.91;98339.34;5092708;28;20028;-68
2022/11/15 11:04:05;;;;;;;24.40;15.38;;;;;;;11.70;73.21;98333.84;5093297;28;20027;-67
2022/11/15 11:06:49;;;;;;;23.65;15.05;;;;;;;11.72;72.46;98336.28;5092237;28;20052;-68
2022/11/15 11:09:35;;;;;;;28.35;16.15;;;;;;;11.70;72.74;98333.03;5092750;28;20028;-68
2022/11/15 11:12:02;;;;;;;27.83;16.02;;;;;;;11.71;72.50;98332.72;5092621;28;20031;-66
2022/11/15 11:14:36;;;;;;;25.85;16.40;;;;;;;11.71;72.56;98330.00;5092933;28;20032;-68
2022/11/15 11:17:30;;;;;;;26.10;15.60;;;;;;;11.74;72.41;98321.13;5092387;28;20043;-68
2022/11/15 11:20:22;;;;;;;31.95;17.27;;;;;;;11.76;72.94;98321.66;5092305;28;20035;-68
2022/11/15 11:23:24;;;;;;;31.20;16.90;;;;;;;11.77;72.62;98320.53;5088197;28;20513;-68
2022/11/15 11:26:17;;;;;;;29.60;16.98;;;;;;;11.77;71.25;98320.53;5091919;28;20062;-68
2022/11/15 11:29:10;;;;;;;31.88;18.30;;;;;;;11.74;71.31;98312.06;5092005;28;20024;-67
2022/11/15 11:32:01;;;;;;;33.88;19.42;;;;;;;11.72;71.94;98309.63;5092227;28;20044;-68
2022/11/15 11:34:54;;;;;;;31.13;18.75;;;;;;;11.72;71.38;98306.88;5081676;28;20119;-68
2022/11/15 11:37:50;;;;;;;33.97;19.63;;;;;;;11.72;72.15;98304.16;5092048;28;20036;-68
2022/11/15 11:40:36;;;;;;;35.42;19.80;;;;;;;11.72;71.51;98293.16;5092020;28;20492;-67
2022/11/15 11:43:15;;;;;;;34.75;18.92;;;;;;;11.76;71.92;98299.66;5100847;28;20059;-71
2022/11/15 11:46:10;;;;;;;31.20;18.80;;;;;;;11.82;71.89;98289.38;5112106;28;20020;-67
2022/11/15 11:48:45;;;;;;;29.23;17.88;;;;;;;11.86;71.83;98281.31;5112145;28;20024;-68